Nampa, ID

7:31 PM MST on December 14, 2019 (GMT -0700)
Nampa

Weather History for KMAN - October, 2019

Change the Weather History Date:

Saturday, October 19, 2019

  Actual Average (KBOI) Record (KBOI)
Temperature  
Mean Temperature 46 °F -  
Max Temperature 55 °F 64 °F 83 °F (1927)
Min Temperature 37 °F 37 °F 23 °F (1905)
Degree Days  
Heating Degree Days 19    
Moisture  
Dew Point 31 °F    
Average Humidity 59    
Maximum Humidity 100    
Minimum Humidity 33    
Precipitation  
Precipitation 0.09 in - - ()
Sea Level Pressure  
Sea Level Pressure 29.83 in    
Wind  
Wind Speed 11 mph (SW)    
Max Wind Speed 30 mph    
Max Gust Speed 36 mph    
Visibility 10 miles    
Events      
Averages and records for this station are not official NWS values.
T = Trace of Precipitation, MM = Missing Value Source: NWS Daily Summary

Daily Weather History Graph

Daily Weather History Graph

Search for Another Location

Airport or City:

Astronomy

Oct. 19, 2019 Rise Set
Actual Time 8:04 AM MDT 6:56 PM MDT
Civil Twilight 7:35 AM MDT 7:25 PM MDT
Nautical Twilight 7:02 AM MDT 7:58 PM MDT
Astronomical Twilight 6:29 AM MDT 8:31 PM MDT
Moon 11:01 PM MDT (10/19) 1:49 PM MDT (10/19)
Length of Visible Light 11h 49m
Length of Day
10h 51m
Waning Gibbous, 69% of the Moon is Illuminated
Oct 19
Waning Gibbous
Oct 21
Last Quarter
Oct 27
New
Nov 4
First Quarter
Nov 12
Full

Hourly Weather History & Observations

Time (MDT) Temp. Windchill Dew Point Humidity Pressure Visibility Wind Dir Wind Speed Gust Speed Precip Events Conditions
12:15 AM 37.4 °F 32.8 °F 24.8 °F 60% 29.94 in 10.0 mi SE 5.8 mph - N/A   Unknown
12:55 AM 39.2 °F 33.6 °F 24.8 °F 56% 29.93 in 10.0 mi SE 8.1 mph - N/A   Unknown
1:15 AM 37.4 °F 32.1 °F 24.8 °F 60% 29.93 in 10.0 mi SE 6.9 mph - N/A   Unknown
1:35 AM 37.4 °F 31.4 °F 24.8 °F 60% 29.92 in 10.0 mi SE 8.1 mph - N/A   Unknown
1:55 AM 37.4 °F 32.1 °F 24.8 °F 60% 29.92 in 10.0 mi SE 6.9 mph - N/A   Unknown
2:15 AM 37.4 °F 32.1 °F 24.8 °F 60% 29.92 in 10.0 mi SE 6.9 mph - N/A   Unknown
2:35 AM 39.2 °F 33.6 °F 24.8 °F 56% 29.92 in 10.0 mi SE 8.1 mph - N/A   Unknown
2:55 AM 39.2 °F 35.0 °F 24.8 °F 56% 29.92 in 10.0 mi SE 5.8 mph - N/A   Unknown
3:15 AM 39.2 °F 33.6 °F 24.8 °F 56% 29.91 in 10.0 mi SE 8.1 mph - N/A   Unknown
3:35 AM 39.2 °F 34.2 °F 24.8 °F 56% 29.91 in 10.0 mi SE 6.9 mph - N/A   Unknown
3:55 AM 39.2 °F 33.6 °F 24.8 °F 56% 29.90 in 10.0 mi SE 8.1 mph - N/A   Unknown
4:15 AM 39.2 °F 33.0 °F 24.8 °F 56% 29.88 in 10.0 mi SE 9.2 mph - N/A   Unknown
4:35 AM 39.2 °F 34.2 °F 24.8 °F 56% 29.87 in 10.0 mi SE 6.9 mph - N/A   Unknown
4:55 AM 37.4 °F 34.9 °F 24.8 °F 60% 29.87 in 10.0 mi SSE 3.5 mph - N/A   Unknown
5:15 AM 37.4 °F 33.8 °F 24.8 °F 60% 29.85 in 10.0 mi SE 4.6 mph - N/A   Unknown
5:35 AM 39.2 °F 35.0 °F 24.8 °F 56% 29.83 in 10.0 mi SE 5.8 mph - N/A   Unknown
5:55 AM 41.0 °F 38.0 °F 24.8 °F 53% 29.83 in 10.0 mi SE 4.6 mph - N/A   Unknown
6:15 AM 42.8 °F 38.6 °F 24.8 °F 49% 29.83 in 10.0 mi SSE 6.9 mph - N/A   Unknown
6:35 AM 42.8 °F 38.6 °F 24.8 °F 49% 29.82 in 10.0 mi SE 6.9 mph - N/A   Unknown
6:55 AM 44.6 °F 43.1 °F 26.6 °F 49% 29.82 in 9.0 mi SE 3.5 mph - N/A   Unknown
7:15 AM 42.8 °F 38.0 °F 30.2 °F 61% 29.81 in 7.0 mi SSW 8.1 mph - N/A   Unknown
7:35 AM 41.0 °F 35.8 °F 35.6 °F 81% 29.82 in 3.0 mi East 8.1 mph - N/A   Haze
7:55 AM 39.2 °F 32.0 °F 39.2 °F 100% 29.81 in 2.5 mi East 11.5 mph - 0.01 in   Mist
8:15 AM 39.2 °F 31.6 °F 39.2 °F 100% 29.79 in 5.0 mi ESE 12.7 mph - N/A   Overcast
8:35 AM 41.0 °F 34.7 °F 41.0 °F 100% 29.79 in 10.0 mi ESE 10.4 mph 16.1 mph N/A   Overcast
8:55 AM 41.0 °F 34.3 °F 41.0 °F 100% 29.78 in 10.0 mi ESE 11.5 mph - 0.02 in   Overcast
9:15 AM 42.8 °F 35.8 °F 41.0 °F 93% 29.77 in 10.0 mi ESE 13.8 mph - N/A   Overcast
9:35 AM 42.8 °F 35.8 °F 42.8 °F 100% 29.77 in 9.0 mi ESE 13.8 mph - N/A   Overcast
9:55 AM 44.6 °F 38.8 °F 42.8 °F 93% 29.75 in 10.0 mi ESE 11.5 mph 21.9 mph 0.01 in   Mostly Cloudy
10:15 AM 46.4 °F 41.5 °F 42.8 °F 87% 29.76 in 10.0 mi SE 10.4 mph 17.3 mph N/A   Mostly Cloudy
10:35 AM 46.4 °F 40.7 °F 42.8 °F 87% 29.74 in 10.0 mi SE 12.7 mph 18.4 mph N/A   Overcast
10:55 AM 48.2 °F - 44.6 °F 87% 29.73 in 10.0 mi SE 9.2 mph 17.3 mph 0.01 in   Overcast
11:15 AM 50.0 °F - 44.6 °F 82% 29.70 in 10.0 mi SE 13.8 mph - N/A   Mostly Cloudy
11:35 AM 50.0 °F - 44.6 °F 82% 29.69 in 10.0 mi SE 8.1 mph 16.1 mph N/A   Overcast
11:55 AM 44.6 °F 35.9 °F 44.6 °F 100% 29.76 in 4.0 mi NW 23.0 mph 35.7 mph 0.01 in   Mostly Cloudy
12:15 PM 46.4 °F 41.5 °F 42.8 °F 87% 29.75 in 10.0 mi NW 10.4 mph 18.4 mph N/A   Mostly Cloudy
12:35 PM 46.4 °F 41.1 °F 44.6 °F 93% 29.75 in 10.0 mi West 11.5 mph 17.3 mph N/A   Scattered Clouds
12:55 PM 50.0 °F - 42.8 °F 76% 29.75 in 10.0 mi West 13.8 mph - 0.02 in   Clear
1:15 PM 53.6 °F - 37.4 °F 54% 29.74 in 10.0 mi West 17.3 mph 24.2 mph N/A   Scattered Clouds
1:35 PM 53.6 °F - 33.8 °F 47% 29.74 in 10.0 mi West 25.3 mph 31.1 mph N/A   Partly Cloudy
1:55 PM 51.8 °F - 33.8 °F 50% 29.75 in 10.0 mi WNW 27.6 mph 35.7 mph 0.01 in   Clear
2:15 PM 53.6 °F - 33.8 °F 47% 29.75 in 10.0 mi West 25.3 mph - N/A   Clear
2:35 PM 53.6 °F - 33.8 °F 47% 29.75 in 10.0 mi WNW 17.3 mph 26.5 mph N/A   Scattered Clouds
2:55 PM 55.4 °F - 30.2 °F 38% 29.75 in 10.0 mi West 25.3 mph 33.4 mph N/A   Mostly Cloudy
3:15 PM 53.6 °F - 28.4 °F 38% 29.75 in 10.0 mi West 29.9 mph - N/A   Mostly Cloudy
3:35 PM 55.4 °F - 28.4 °F 36% 29.77 in 10.0 mi WNW 26.5 mph 35.7 mph N/A   Scattered Clouds
3:55 PM 53.6 °F - 28.4 °F 38% 29.77 in 10.0 mi WNW 17.3 mph 31.1 mph N/A   Mostly Cloudy
4:15 PM 53.6 °F - 28.4 °F 38% 29.78 in 10.0 mi WNW 17.3 mph 28.8 mph N/A   Overcast
4:35 PM 53.6 °F - 28.4 °F 38% 29.78 in 10.0 mi WNW 15.0 mph 29.9 mph N/A   Overcast
4:55 PM 55.4 °F - 26.6 °F 33% 29.79 in 10.0 mi WNW 26.5 mph 33.4 mph N/A   Mostly Cloudy
5:15 PM 53.6 °F - 26.6 °F 35% 29.80 in 10.0 mi WNW 25.3 mph - N/A   Scattered Clouds
5:55 PM 51.8 °F - 28.4 °F 41% 29.82 in 10.0 mi WNW 20.7 mph - N/A   Overcast
6:15 PM 51.8 °F - 28.4 °F 41% 29.82 in 10.0 mi WNW 16.1 mph 24.2 mph N/A   Overcast
6:35 PM 51.8 °F - 28.4 °F 41% 29.83 in 10.0 mi WNW 16.1 mph 25.3 mph N/A   Scattered Clouds
6:55 PM 51.8 °F - 28.4 °F 41% 29.84 in 10.0 mi WNW 15.0 mph 21.9 mph N/A   Mostly Cloudy
7:15 PM 51.8 °F - 28.4 °F 41% 29.85 in 10.0 mi WNW 18.4 mph 33.4 mph N/A   Overcast
7:35 PM 50.0 °F - 28.4 °F 43% 29.85 in 10.0 mi WNW 17.3 mph 25.3 mph N/A   Mostly Cloudy
7:55 PM 50.0 °F - 28.4 °F 43% 29.87 in 10.0 mi WNW 15.0 mph 21.9 mph N/A   Mostly Cloudy
8:15 PM 50.0 °F - 28.4 °F 43% 29.88 in 10.0 mi West 19.6 mph 25.3 mph N/A   Overcast
8:35 PM 48.2 °F - 28.4 °F 46% 29.89 in 10.0 mi West 19.6 mph 25.3 mph N/A   Mostly Cloudy
8:55 PM 48.2 °F - 28.4 °F 46% 29.90 in 10.0 mi West 19.6 mph 26.5 mph N/A   Overcast
9:15 PM 48.2 °F - 28.4 °F 46% 29.90 in 10.0 mi West 15.0 mph - N/A   Overcast
9:35 PM 48.2 °F - 26.6 °F 43% 29.91 in 10.0 mi West 19.6 mph 25.3 mph N/A   Overcast
9:55 PM 48.2 °F - 28.4 °F 46% 29.92 in 10.0 mi West 13.8 mph 23.0 mph N/A   Scattered Clouds
10:15 PM 46.4 °F 40.1 °F 28.4 °F 50% 29.93 in 10.0 mi West 15.0 mph - N/A   Partly Cloudy
10:35 PM 46.4 °F 40.4 °F 28.4 °F 50% 29.94 in 10.0 mi West 13.8 mph 20.7 mph N/A   Partly Cloudy
10:55 PM 46.4 °F 40.7 °F 28.4 °F 50% 29.95 in 10.0 mi WNW 12.7 mph 18.4 mph N/A   Partly Cloudy
11:15 PM 46.4 °F 40.4 °F 28.4 °F 50% 29.96 in 10.0 mi WNW 13.8 mph - N/A   Partly Cloudy
11:35 PM 46.4 °F 40.4 °F 30.2 °F 53% 29.97 in 10.0 mi WNW 13.8 mph - N/A   Clear
11:55 PM 46.4 °F 39.8 °F 28.4 °F 50% 29.98 in 10.0 mi WNW 16.1 mph - N/A   Partly Cloudy